MiSS Donna — WDG2382 — position and weather

sailwx.info

Track history (hours):
 
Tides and Currents Weather Stations Pressure Air Temp Water Temp Dewpoint Dewpoint Depression Visibility Wind Speed Wind Dir Waves Ship Positions

MiSS Donna

Owner: OCEAN MARINE BOAT RENTALS,LLC, MORGAN CITY, LA. More information available from US FCC via Universal Licensing System and Coast Guard Vessel Documentation Center.

Last reported at 2016-Feb-10 04:33 UTC. Time now 2016-Feb-10 04:35 UTC.
Position N 39°13' W 076°35'.

Length 21 m; draft 2.7 m.

Type: Towing. MMSI: 367515090.

Date/timePositionNaut miles runAvg speedWind from/ knotsBaromVisibWave heightAir tempDewpointWater temp
2016-Feb-10 04:33N 39°13' W 076°35'0 0.0
2016-Feb-10 03:33N 39°13' W 076°35'2 1.7
2016-Feb-10 02:33N 39°14' W 076°33'2 1.5
2016-Feb-10 01:33N 39°15' W 076°32'0 0.0
2016-Feb-10 00:33N 39°15' W 076°32'0 0.1
2016-Feb-09 23:34N 39°15' W 076°32'0 0.0
2016-Feb-09 22:34N 39°15' W 076°32'0 0.1
2016-Feb-09 21:34N 39°15' W 076°32'0 0.1
2016-Feb-09 20:34N 39°15' W 076°32'3 2.3
2016-Feb-09 19:17N 39°13' W 076°35'0 0.0
2016-Feb-09 18:09N 39°13' W 076°35'0 0.0
2016-Feb-09 17:33N 39°13' W 076°35'5 4.6
2016-Feb-09 16:33N 39°12' W 076°29'6 5.5
2016-Feb-09 15:33N 39°13' W 076°22'4 4.2
2016-Feb-09 14:32N 39°17' W 076°21'6 2.9
2016-Feb-09 12:24N 39°11' W 076°25'6 6.6
2016-Feb-09 11:34N 39°13' W 076°32'2 2.2
2016-Feb-09 10:33N 39°13' W 076°35'0 0.0
2016-Feb-09 09:33N 39°13' W 076°35'0 0.0
2016-Feb-09 08:33N 39°13' W 076°35'0 0.0
2016-Feb-09 07:33N 39°13' W 076°35'0 0.0
2016-Feb-09 06:28N 39°13' W 076°35'0 0.0
2016-Feb-09 05:32N 39°13' W 076°35'0 0.0
2016-Feb-09 04:33N 39°13' W 076°35'0 0.0
2016-Feb-09 03:31N 39°13' W 076°35'0 0.0
2016-Feb-09 02:33N 39°13' W 076°35'0 0.0
2016-Feb-09 01:33N 39°13' W 076°35'0 0.0
2016-Feb-09 00:33N 39°13' W 076°35'0 0.0
2016-Feb-08 23:33N 39°13' W 076°35'3 3.1
2016-Feb-08 22:34N 39°15' W 076°32'0 0.0
2016-Feb-08 21:34N 39°15' W 076°32'0 0.0
2016-Feb-08 20:34N 39°15' W 076°32'0 0.1
2016-Feb-08 19:34N 39°15' W 076°32'0 0.0
2016-Feb-08 18:34N 39°15' W 076°32'0 0.0
2016-Feb-08 17:33N 39°15' W 076°32'0 0.0
2016-Feb-08 16:34N 39°15' W 076°32'0 0.0
2016-Feb-08 15:33N 39°15' W 076°32'2 2.4
2016-Feb-08 14:34N 39°15' W 076°35'0 0.1
2016-Feb-08 13:33N 39°15' W 076°35'2 2.3
2016-Feb-08 12:34N 39°15' W 076°32'0 0.1
2016-Feb-08 11:34N 39°15' W 076°32'2 1.5
2016-Feb-08 10:34N 39°14' W 076°33'2 1.7
2016-Feb-08 09:33N 39°13' W 076°35'0 0.0
2016-Feb-08 08:33N 39°13' W 076°35'0 0.0
2016-Feb-08 07:33N 39°13' W 076°35'0 0.0
2016-Feb-08 06:34N 39°13' W 076°35'0 0.0
2016-Feb-08 05:33N 39°13' W 076°35'0 0.0
2016-Feb-08 04:33N 39°13' W 076°35'0 0.0
2016-Feb-08 03:33N 39°13' W 076°35'0 0.0
2016-Feb-08 02:32N 39°13' W 076°35'0 0.0
2016-Feb-08 01:33N 39°13' W 076°35'0 0.0
2016-Feb-08 00:33N 39°13' W 076°35'0 0.0
2016-Feb-07 23:33N 39°13' W 076°35'0 0.0
2016-Feb-07 22:33N 39°13' W 076°35'0 0.0
2016-Feb-07 21:33N 39°13' W 076°35'0 0.0
2016-Feb-07 20:33N 39°13' W 076°35'0 0.0
2016-Feb-07 19:33N 39°13' W 076°35'0 0.0
2016-Feb-07 18:33N 39°13' W 076°35'0 0.0
2016-Feb-07 17:33N 39°13' W 076°35'0 0.0
2016-Feb-07 16:33N 39°13' W 076°35'0 0.0
2016-Feb-07 15:33N 39°13' W 076°35'0 0.0
2016-Feb-07 14:33N 39°13' W 076°35'0 0.0
2016-Feb-07 13:33N 39°13' W 076°35'0 0.0
2016-Feb-07 12:33N 39°13' W 076°35'0 0.0
2016-Feb-07 11:33N 39°13' W 076°35'0 0.0
2016-Feb-07 10:33N 39°13' W 076°35'0 0.0
2016-Feb-07 09:33N 39°13' W 076°35'0 0.0
2016-Feb-07 08:33N 39°13' W 076°35'0 0.0
2016-Feb-07 07:33N 39°13' W 076°35'0 0.0
2016-Feb-07 06:33N 39°13' W 076°35'0 0.0
2016-Feb-07 05:33N 39°13' W 076°35'0 0.0
2016-Feb-07 04:33N 39°13' W 076°35'0 0.0
2016-Feb-07 03:33N 39°13' W 076°35'0 0.0
2016-Feb-07 02:34N 39°13' W 076°35'0 0.0
2016-Feb-07 01:33N 39°13' W 076°35'0 0.0
2016-Feb-07 00:33N 39°13' W 076°35'0 0.0
2016-Feb-06 23:33N 39°13' W 076°35'0 0.0
2016-Feb-06 22:33N 39°13' W 076°35'0 0.0
2016-Feb-06 21:33N 39°13' W 076°35'0 0.0
2016-Feb-06 20:33N 39°13' W 076°35'0 0.0
2016-Feb-06 19:33N 39°13' W 076°35'0 0.0
2016-Feb-06 18:33N 39°13' W 076°35'0 0.0
2016-Feb-06 17:33N 39°13' W 076°35'0 0.0
2016-Feb-06 16:33N 39°13' W 076°35'0 0.0
2016-Feb-06 15:33N 39°13' W 076°35'0 0.0
2016-Feb-06 14:33N 39°13' W 076°35'0 0.0
2016-Feb-06 13:33N 39°13' W 076°35'0 0.0
2016-Feb-06 12:33N 39°13' W 076°35'0 0.0
2016-Feb-06 11:33N 39°13' W 076°35'0 0.0
2016-Feb-06 10:33N 39°13' W 076°35'0 0.0
2016-Feb-06 09:33N 39°13' W 076°35'0 0.0
2016-Feb-06 08:33N 39°13' W 076°35'0 0.0
2016-Feb-06 07:33N 39°13' W 076°35'0 0.0
2016-Feb-06 06:33N 39°13' W 076°35'0 0.0
2016-Feb-06 05:33N 39°13' W 076°35'0 0.0
2016-Feb-06 04:33N 39°13' W 076°35'0 0.0
2016-Feb-06 03:33N 39°13' W 076°35'0 0.0
2016-Feb-06 02:33N 39°13' W 076°35'0 0.0
2016-Feb-06 01:33N 39°13' W 076°35'0 0.0
2016-Feb-06 00:33N 39°13' W 076°35'0 0.0
2016-Feb-05 23:33N 39°13' W 076°35'0 0.0
2016-Feb-05 22:33N 39°13' W 076°35'0 0.0
2016-Feb-05 21:32N 39°13' W 076°35'2 2.1
2016-Feb-05 20:34N 39°14' W 076°33'2 1.7
2016-Feb-05 19:33N 39°15' W 076°35'3 2.6
2016-Feb-05 18:33N 39°13' W 076°35'0 0.0
2016-Feb-05 17:33N 39°13' W 076°35'0 0.0
2016-Feb-05 16:33N 39°13' W 076°35'0 0.0
2016-Feb-05 15:33N 39°13' W 076°35'0 0.0
2016-Feb-05 14:33N 39°13' W 076°35'0 0.0
2016-Feb-05 13:33N 39°13' W 076°35'3 2.6
2016-Feb-05 12:34N 39°15' W 076°35'0 0.0
2016-Feb-05 11:33N 39°15' W 076°35'2 2.2
2016-Feb-05 10:34N 39°13' W 076°34'1 0.7
2016-Feb-05 09:33N 39°13' W 076°35'0 0.0
2016-Feb-05 08:34N 39°13' W 076°35'0 0.0
2016-Feb-05 07:34N 39°13' W 076°35'0 0.0
2016-Feb-05 06:34N 39°13' W 076°35'0 0.0
2016-Feb-05 05:34N 39°13' W 076°35'0 0.0
2016-Feb-05 04:34N 39°13' W 076°35'0 0.0
2016-Feb-05 03:34N 39°13' W 076°35'0 0.0
2016-Feb-05 02:33N 39°13' W 076°35'0 0.0
2016-Feb-05 01:33N 39°13' W 076°35'0 0.0
2016-Feb-05 00:34N 39°13' W 076°35'0 0.0
2016-Feb-04 23:33N 39°13' W 076°35'0 0.0
2016-Feb-04 22:32N 39°13' W 076°35'3 2.9
2016-Feb-04 21:33N 39°15' W 076°33'1 1.1
2016-Feb-04 20:34N 39°15' W 076°34'2 1.7
2016-Feb-04 19:33N 39°15' W 076°32'0 0.1
2016-Feb-04 18:33N 39°15' W 076°32'0 0.1
2016-Feb-04 17:34N 39°15' W 076°32'3 2.6
2016-Feb-04 16:34N 39°13' W 076°35'3 2.7
2016-Feb-04 15:33N 39°15' W 076°32'3 2.6
2016-Feb-04 14:34N 39°13' W 076°35'0 0.5
2016-Feb-04 13:33N 39°13' W 076°35'0 0.0
2016-Feb-04 12:34N 39°13' W 076°35'0 0.0
2016-Feb-04 11:33N 39°13' W 076°35'0 0.0
2016-Feb-04 10:34N 39°13' W 076°35'0 0.0
2016-Feb-04 09:33N 39°13' W 076°35'0 0.0
2016-Feb-04 08:34N 39°13' W 076°35'0 0.0
2016-Feb-04 07:33N 39°13' W 076°35'0 0.0
2016-Feb-04 06:34N 39°13' W 076°35'0 0.0
2016-Feb-04 05:33N 39°13' W 076°35'0 0.0
2016-Feb-04 04:34N 39°13' W 076°35'0 0.0
2016-Feb-04 03:34N 39°13' W 076°35'0 0.0
2016-Feb-04 02:34N 39°13' W 076°35'0 0.0
2016-Feb-04 01:34N 39°13' W 076°35'0 0.0
2016-Feb-04 00:34N 39°13' W 076°35'0 0.0
2016-Feb-03 23:33N 39°13' W 076°35'0 0.0
2016-Feb-03 22:34N 39°13' W 076°35'2 1.5
2016-Feb-03 21:33N 39°13' W 076°33'2 1.6
2016-Feb-03 20:30N 39°15' W 076°32'0 0.0
2016-Feb-03 19:22N 39°15' W 076°32'2 1.8
2016-Feb-03 18:27N 39°13' W 076°33'1 0.7
2016-Feb-03 16:32N 39°13' W 076°34'0 0.0
2016-Feb-03 15:28N 39°13' W 076°34'0 0.0
2016-Feb-03 14:30N 39°13' W 076°34'0 0.0
2016-Feb-03 13:29N 39°13' W 076°34'0 0.3
2016-Feb-03 12:32N 39°13' W 076°35'0 0.0
2016-Feb-03 10:07N 39°13' W 076°35'0 0.0
2016-Feb-03 09:33N 39°13' W 076°35'0 0.0
2016-Feb-03 08:25N 39°13' W 076°35'0 0.0
2016-Feb-03 07:23N 39°13' W 076°35'0 0.0
2016-Feb-03 06:19N 39°13' W 076°35'0 0.0
2016-Feb-03 05:30N 39°13' W 076°35'0 0.0
2016-Feb-03 04:29N 39°13' W 076°35'0 0.0
2016-Feb-03 02:27N 39°13' W 076°35'0 0.0
2016-Feb-02 22:32N 39°13' W 076°35'0 0.0
2016-Feb-02 18:30N 39°13' W 076°35'0 0.0
2016-Feb-02 17:29N 39°13' W 076°35'0 0.0
2016-Feb-02 16:32N 39°13' W 076°35'0 0.0
2016-Feb-02 14:31N 39°13' W 076°35'0 0.0
2016-Feb-02 13:31N 39°13' W 076°35'0 0.0
2016-Feb-02 12:26N 39°13' W 076°35'0 0.0
2016-Feb-02 11:30N 39°13' W 076°35'0 0.0
2016-Feb-02 10:27N 39°13' W 076°35'0 0.0
2016-Feb-02 09:31N 39°13' W 076°35'0 0.0
2016-Feb-02 08:31N 39°13' W 076°35'0 0.0
2016-Feb-02 05:33N 39°13' W 076°35'0 0.0
2016-Feb-02 04:32N 39°13' W 076°35'0 0.0
2016-Feb-02 03:30N 39°13' W 076°35'0 0.0
2016-Feb-02 02:14N 39°13' W 076°35'0 0.0
2016-Feb-01 23:07N 39°13' W 076°35'0 0.0
2016-Feb-01 20:25N 39°13' W 076°35'0 0.1
2016-Feb-01 19:14N 39°13' W 076°35'2 3.2
2016-Feb-01 18:31N 39°13' W 076°32'5 4.8
2016-Feb-01 17:32N 39°11' W 076°26'20 4.8
2016-Feb-01 13:23N 38°51' W 076°26'  
Track history (hours):
 
Tides and Currents Weather Stations Pressure Air Temp Water Temp Dewpoint Dewpoint Depression Visibility Wind Speed Wind Dir Waves Ship Positions

MiSS Donna

Owner: OCEAN MARINE BOAT RENTALS,LLC, MORGAN CITY, LA. More information available from US FCC via Universal Licensing System and Coast Guard Vessel Documentation Center.

Last reported at 2016-Feb-10 04:33 UTC. Time now 2016-Feb-10 04:35 UTC.
Position N 39°13' W 076°35'.

Length 21 m; draft 2.7 m.

Type: Towing. MMSI: 367515090.

Date/timePositionNaut miles runAvg speedWind from/ knotsBaromVisibWave heightAir tempDewpointWater temp
2016-Feb-10 04:33N 39°13' W 076°35'0 0.0
2016-Feb-10 03:33N 39°13' W 076°35'2 1.7
2016-Feb-10 02:33N 39°14' W 076°33'2 1.5
2016-Feb-10 01:33N 39°15' W 076°32'0 0.0
2016-Feb-10 00:33N 39°15' W 076°32'0 0.1
2016-Feb-09 23:34N 39°15' W 076°32'0 0.0
2016-Feb-09 22:34N 39°15' W 076°32'0 0.1
2016-Feb-09 21:34N 39°15' W 076°32'0 0.1
2016-Feb-09 20:34N 39°15' W 076°32'3 2.3
2016-Feb-09 19:17N 39°13' W 076°35'0 0.0
2016-Feb-09 18:09N 39°13' W 076°35'0 0.0
2016-Feb-09 17:33N 39°13' W 076°35'5 4.6
2016-Feb-09 16:33N 39°12' W 076°29'6 5.5
2016-Feb-09 15:33N 39°13' W 076°22'4 4.2
2016-Feb-09 14:32N 39°17' W 076°21'6 2.9
2016-Feb-09 12:24N 39°11' W 076°25'6 6.6
2016-Feb-09 11:34N 39°13' W 076°32'2 2.2
2016-Feb-09 10:33N 39°13' W 076°35'0 0.0
2016-Feb-09 09:33N 39°13' W 076°35'0 0.0
2016-Feb-09 08:33N 39°13' W 076°35'0 0.0
2016-Feb-09 07:33N 39°13' W 076°35'0 0.0
2016-Feb-09 06:28N 39°13' W 076°35'0 0.0
2016-Feb-09 05:32N 39°13' W 076°35'0 0.0
2016-Feb-09 04:33N 39°13' W 076°35'0 0.0
2016-Feb-09 03:31N 39°13' W 076°35'0 0.0
2016-Feb-09 02:33N 39°13' W 076°35'0 0.0
2016-Feb-09 01:33N 39°13' W 076°35'0 0.0
2016-Feb-09 00:33N 39°13' W 076°35'0 0.0
2016-Feb-08 23:33N 39°13' W 076°35'3 3.1
2016-Feb-08 22:34N 39°15' W 076°32'0 0.0
2016-Feb-08 21:34N 39°15' W 076°32'0 0.0
2016-Feb-08 20:34N 39°15' W 076°32'0 0.1
2016-Feb-08 19:34N 39°15' W 076°32'0 0.0
2016-Feb-08 18:34N 39°15' W 076°32'0 0.0
2016-Feb-08 17:33N 39°15' W 076°32'0 0.0
2016-Feb-08 16:34N 39°15' W 076°32'0 0.0
2016-Feb-08 15:33N 39°15' W 076°32'2 2.4
2016-Feb-08 14:34N 39°15' W 076°35'0 0.1
2016-Feb-08 13:33N 39°15' W 076°35'2 2.3
2016-Feb-08 12:34N 39°15' W 076°32'0 0.1
2016-Feb-08 11:34N 39°15' W 076°32'2 1.5
2016-Feb-08 10:34N 39°14' W 076°33'2 1.7
2016-Feb-08 09:33N 39°13' W 076°35'0 0.0
2016-Feb-08 08:33N 39°13' W 076°35'0 0.0
2016-Feb-08 07:33N 39°13' W 076°35'0 0.0
2016-Feb-08 06:34N 39°13' W 076°35'0 0.0
2016-Feb-08 05:33N 39°13' W 076°35'0 0.0
2016-Feb-08 04:33N 39°13' W 076°35'0 0.0
2016-Feb-08 03:33N 39°13' W 076°35'0 0.0
2016-Feb-08 02:32N 39°13' W 076°35'0 0.0
2016-Feb-08 01:33N 39°13' W 076°35'0 0.0
2016-Feb-08 00:33N 39°13' W 076°35'0 0.0
2016-Feb-07 23:33N 39°13' W 076°35'0 0.0
2016-Feb-07 22:33N 39°13' W 076°35'0 0.0
2016-Feb-07 21:33N 39°13' W 076°35'0 0.0
2016-Feb-07 20:33N 39°13' W 076°35'0 0.0
2016-Feb-07 19:33N 39°13' W 076°35'0 0.0
2016-Feb-07 18:33N 39°13' W 076°35'0 0.0
2016-Feb-07 17:33N 39°13' W 076°35'0 0.0
2016-Feb-07 16:33N 39°13' W 076°35'0 0.0
2016-Feb-07 15:33N 39°13' W 076°35'0 0.0
2016-Feb-07 14:33N 39°13' W 076°35'0 0.0
2016-Feb-07 13:33N 39°13' W 076°35'0 0.0
2016-Feb-07 12:33N 39°13' W 076°35'0 0.0
2016-Feb-07 11:33N 39°13' W 076°35'0 0.0
2016-Feb-07 10:33N 39°13' W 076°35'0 0.0
2016-Feb-07 09:33N 39°13' W 076°35'0 0.0
2016-Feb-07 08:33N 39°13' W 076°35'0 0.0
2016-Feb-07 07:33N 39°13' W 076°35'0 0.0
2016-Feb-07 06:33N 39°13' W 076°35'0 0.0
2016-Feb-07 05:33N 39°13' W 076°35'0 0.0
2016-Feb-07 04:33N 39°13' W 076°35'0 0.0
2016-Feb-07 03:33N 39°13' W 076°35'0 0.0
2016-Feb-07 02:34N 39°13' W 076°35'0 0.0
2016-Feb-07 01:33N 39°13' W 076°35'0 0.0
2016-Feb-07 00:33N 39°13' W 076°35'0 0.0
2016-Feb-06 23:33N 39°13' W 076°35'0 0.0
2016-Feb-06 22:33N 39°13' W 076°35'0 0.0
2016-Feb-06 21:33N 39°13' W 076°35'0 0.0
2016-Feb-06 20:33N 39°13' W 076°35'0 0.0
2016-Feb-06 19:33N 39°13' W 076°35'0 0.0
2016-Feb-06 18:33N 39°13' W 076°35'0 0.0
2016-Feb-06 17:33N 39°13' W 076°35'0 0.0
2016-Feb-06 16:33N 39°13' W 076°35'0 0.0
2016-Feb-06 15:33N 39°13' W 076°35'0 0.0
2016-Feb-06 14:33N 39°13' W 076°35'0 0.0
2016-Feb-06 13:33N 39°13' W 076°35'0 0.0
2016-Feb-06 12:33N 39°13' W 076°35'0 0.0
2016-Feb-06 11:33N 39°13' W 076°35'0 0.0
2016-Feb-06 10:33N 39°13' W 076°35'0 0.0
2016-Feb-06 09:33N 39°13' W 076°35'0 0.0
2016-Feb-06 08:33N 39°13' W 076°35'0 0.0
2016-Feb-06 07:33N 39°13' W 076°35'0 0.0
2016-Feb-06 06:33N 39°13' W 076°35'0 0.0
2016-Feb-06 05:33N 39°13' W 076°35'0 0.0
2016-Feb-06 04:33N 39°13' W 076°35'0 0.0
2016-Feb-06 03:33N 39°13' W 076°35'0 0.0
2016-Feb-06 02:33N 39°13' W 076°35'0 0.0
2016-Feb-06 01:33N 39°13' W 076°35'0 0.0
2016-Feb-06 00:33N 39°13' W 076°35'0 0.0
2016-Feb-05 23:33N 39°13' W 076°35'0 0.0
2016-Feb-05 22:33N 39°13' W 076°35'0 0.0
2016-Feb-05 21:32N 39°13' W 076°35'2 2.1
2016-Feb-05 20:34N 39°14' W 076°33'2 1.7
2016-Feb-05 19:33N 39°15' W 076°35'3 2.6
2016-Feb-05 18:33N 39°13' W 076°35'0 0.0
2016-Feb-05 17:33N 39°13' W 076°35'0 0.0
2016-Feb-05 16:33N 39°13' W 076°35'0 0.0
2016-Feb-05 15:33N 39°13' W 076°35'0 0.0
2016-Feb-05 14:33N 39°13' W 076°35'0 0.0
2016-Feb-05 13:33N 39°13' W 076°35'3 2.6
2016-Feb-05 12:34N 39°15' W 076°35'0 0.0
2016-Feb-05 11:33N 39°15' W 076°35'2 2.2
2016-Feb-05 10:34N 39°13' W 076°34'1 0.7
2016-Feb-05 09:33N 39°13' W 076°35'0 0.0
2016-Feb-05 08:34N 39°13' W 076°35'0 0.0
2016-Feb-05 07:34N 39°13' W 076°35'0 0.0
2016-Feb-05 06:34N 39°13' W 076°35'0 0.0
2016-Feb-05 05:34N 39°13' W 076°35'0 0.0
2016-Feb-05 04:34N 39°13' W 076°35'0 0.0
2016-Feb-05 03:34N 39°13' W 076°35'0 0.0
2016-Feb-05 02:33N 39°13' W 076°35'0 0.0
2016-Feb-05 01:33N 39°13' W 076°35'0 0.0
2016-Feb-05 00:34N 39°13' W 076°35'0 0.0
2016-Feb-04 23:33N 39°13' W 076°35'0 0.0
2016-Feb-04 22:32N 39°13' W 076°35'3 2.9
2016-Feb-04 21:33N 39°15' W 076°33'1 1.1
2016-Feb-04 20:34N 39°15' W 076°34'2 1.7
2016-Feb-04 19:33N 39°15' W 076°32'0 0.1
2016-Feb-04 18:33N 39°15' W 076°32'0 0.1
2016-Feb-04 17:34N 39°15' W 076°32'3 2.6
2016-Feb-04 16:34N 39°13' W 076°35'3 2.7
2016-Feb-04 15:33N 39°15' W 076°32'3 2.6
2016-Feb-04 14:34N 39°13' W 076°35'0 0.5
2016-Feb-04 13:33N 39°13' W 076°35'0 0.0
2016-Feb-04 12:34N 39°13' W 076°35'0 0.0
2016-Feb-04 11:33N 39°13' W 076°35'0 0.0
2016-Feb-04 10:34N 39°13' W 076°35'0 0.0
2016-Feb-04 09:33N 39°13' W 076°35'0 0.0
2016-Feb-04 08:34N 39°13' W 076°35'0 0.0
2016-Feb-04 07:33N 39°13' W 076°35'0 0.0
2016-Feb-04 06:34N 39°13' W 076°35'0 0.0
2016-Feb-04 05:33N 39°13' W 076°35'0 0.0
2016-Feb-04 04:34N 39°13' W 076°35'0 0.0
2016-Feb-04 03:34N 39°13' W 076°35'0 0.0
2016-Feb-04 02:34N 39°13' W 076°35'0 0.0
2016-Feb-04 01:34N 39°13' W 076°35'0 0.0
2016-Feb-04 00:34N 39°13' W 076°35'0 0.0
2016-Feb-03 23:33N 39°13' W 076°35'0 0.0
2016-Feb-03 22:34N 39°13' W 076°35'2 1.5
2016-Feb-03 21:33N 39°13' W 076°33'2 1.6
2016-Feb-03 20:30N 39°15' W 076°32'0 0.0
2016-Feb-03 19:22N 39°15' W 076°32'2 1.8
2016-Feb-03 18:27N 39°13' W 076°33'1 0.7
2016-Feb-03 16:32N 39°13' W 076°34'0 0.0
2016-Feb-03 15:28N 39°13' W 076°34'0 0.0
2016-Feb-03 14:30N 39°13' W 076°34'0 0.0
2016-Feb-03 13:29N 39°13' W 076°34'0 0.3
2016-Feb-03 12:32N 39°13' W 076°35'0 0.0
2016-Feb-03 10:07N 39°13' W 076°35'0 0.0
2016-Feb-03 09:33N 39°13' W 076°35'0 0.0
2016-Feb-03 08:25N 39°13' W 076°35'0 0.0
2016-Feb-03 07:23N 39°13' W 076°35'0 0.0
2016-Feb-03 06:19N 39°13' W 076°35'0 0.0
2016-Feb-03 05:30N 39°13' W 076°35'0 0.0
2016-Feb-03 04:29N 39°13' W 076°35'0 0.0
2016-Feb-03 02:27N 39°13' W 076°35'0 0.0
2016-Feb-02 22:32N 39°13' W 076°35'0 0.0
2016-Feb-02 18:30N 39°13' W 076°35'0 0.0
2016-Feb-02 17:29N 39°13' W 076°35'0 0.0
2016-Feb-02 16:32N 39°13' W 076°35'0 0.0
2016-Feb-02 14:31N 39°13' W 076°35'0 0.0
2016-Feb-02 13:31N 39°13' W 076°35'0 0.0
2016-Feb-02 12:26N 39°13' W 076°35'0 0.0
2016-Feb-02 11:30N 39°13' W 076°35'0 0.0
2016-Feb-02 10:27N 39°13' W 076°35'0 0.0
2016-Feb-02 09:31N 39°13' W 076°35'0 0.0
2016-Feb-02 08:31N 39°13' W 076°35'0 0.0
2016-Feb-02 05:33N 39°13' W 076°35'0 0.0
2016-Feb-02 04:32N 39°13' W 076°35'0 0.0
2016-Feb-02 03:30N 39°13' W 076°35'0 0.0
2016-Feb-02 02:14N 39°13' W 076°35'0 0.0
2016-Feb-01 23:07N 39°13' W 076°35'0 0.0
2016-Feb-01 20:25N 39°13' W 076°35'0 0.1
2016-Feb-01 19:14N 39°13' W 076°35'2 3.2
2016-Feb-01 18:31N 39°13' W 076°32'5 4.8
2016-Feb-01 17:32N 39°11' W 076°26'20 4.8
2016-Feb-01 13:23N 38°51' W 076°26'  

Dump ship's entire track history